sensor_id;sensor_type;location;lat;lon;timestamp;pressure;altitude;pressure_sealevel;temperature;humidity
71043;BME280;58696;52.134;5.500;2024-01-30T00:00:08;102578.97;;;6.81;100.00
71043;BME280;58696;52.134;5.500;2024-01-30T00:02:34;102572.09;;;6.81;100.00
71043;BME280;58696;52.134;5.500;2024-01-30T00:05:06;102579.06;;;6.79;100.00
71043;BME280;58696;52.134;5.500;2024-01-30T00:07:32;102578.59;;;6.74;100.00
71043;BME280;58696;52.134;5.500;2024-01-30T00:10:02;102576.94;;;6.73;100.00
71043;BME280;58696;52.134;5.500;2024-01-30T00:12:29;102579.50;;;6.73;100.00
71043;BME280;58696;52.134;5.500;2024-01-30T00:14:55;102577.31;;;6.69;100.00
71043;BME280;58696;52.134;5.500;2024-01-30T00:17:22;102585.44;;;6.74;100.00
71043;BME280;58696;52.134;5.500;2024-01-30T00:19:49;102574.53;;;6.72;100.00
71043;BME280;58696;52.134;5.500;2024-01-30T00:22:15;102578.13;;;6.69;100.00
71043;BME280;58696;52.134;5.500;2024-01-30T00:24:45;102580.69;;;6.69;100.00
71043;BME280;58696;52.134;5.500;2024-01-30T00:27:14;102578.22;;;6.68;100.00
71043;BME280;58696;52.134;5.500;2024-01-30T00:29:43;102583.59;;;6.76;100.00
71043;BME280;58696;52.134;5.500;2024-01-30T00:32:12;102581.16;;;6.74;100.00
71043;BME280;58696;52.134;5.500;2024-01-30T00:34:38;102578.03;;;6.82;100.00
71043;BME280;58696;52.134;5.500;2024-01-30T00:37:07;102574.19;;;6.76;100.00
71043;BME280;58696;52.134;5.500;2024-01-30T00:39:34;102579.41;;;6.75;100.00
71043;BME280;58696;52.134;5.500;2024-01-30T00:42:01;102580.09;;;6.77;100.00
71043;BME280;58696;52.134;5.500;2024-01-30T00:44:30;102573.13;;;6.79;100.00
71043;BME280;58696;52.134;5.500;2024-01-30T00:46:56;102566.41;;;6.78;100.00
71043;BME280;58696;52.134;5.500;2024-01-30T00:49:23;102570.25;;;6.83;100.00
71043;BME280;58696;52.134;5.500;2024-01-30T00:51:49;102575.69;;;6.79;100.00
71043;BME280;58696;52.134;5.500;2024-01-30T00:54:16;102567.53;;;6.74;100.00
71043;BME280;58696;52.134;5.500;2024-01-30T00:56:43;102571.13;;;6.60;100.00
71043;BME280;58696;52.134;5.500;2024-01-30T00:59:14;102563.09;;;6.42;100.00
71043;BME280;58696;52.134;5.500;2024-01-30T01:01:43;102569.06;;;6.30;100.00
71043;BME280;58696;52.134;5.500;2024-01-30T01:04:11;102564.97;;;6.16;100.00
71043;BME280;58696;52.134;5.500;2024-01-30T01:06:38;102569.78;;;6.08;100.00
71043;BME280;58696;52.134;5.500;2024-01-30T01:09:05;102575.34;;;6.02;100.00
71043;BME280;58696;52.134;5.500;2024-01-30T01:11:31;102562.41;;;5.92;100.00
71043;BME280;58696;52.134;5.500;2024-01-30T01:13:58;102561.50;;;5.80;100.00
71043;BME280;58696;52.134;5.500;2024-01-30T01:16:30;102563.94;;;5.71;100.00
71043;BME280;58696;52.134;5.500;2024-01-30T01:18:57;102562.28;;;5.70;100.00
71043;BME280;58696;52.134;5.500;2024-01-30T01:21:23;102556.59;;;5.66;100.00
71043;BME280;58696;52.134;5.500;2024-01-30T01:23:52;102559.22;;;5.65;100.00
71043;BME280;58696;52.134;5.500;2024-01-30T01:26:19;102554.25;;;5.63;100.00
71043;BME280;58696;52.134;5.500;2024-01-30T01:28:48;102543.44;;;5.60;100.00
71043;BME280;58696;52.134;5.500;2024-01-30T01:31:14;102541.81;;;5.59;100.00
71043;BME280;58696;52.134;5.500;2024-01-30T01:33:45;102537.75;;;5.56;100.00
71043;BME280;58696;52.134;5.500;2024-01-30T01:36:13;102533.88;;;5.50;100.00
71043;BME280;58696;52.134;5.500;2024-01-30T01:38:41;102530.47;;;5.39;100.00
71043;BME280;58696;52.134;5.500;2024-01-30T01:41:08;102532.50;;;5.34;100.00
71043;BME280;58696;52.134;5.500;2024-01-30T01:43:34;102523.31;;;5.31;100.00
71043;BME280;58696;52.134;5.500;2024-01-30T01:46:05;102535.38;;;5.29;100.00
71043;BME280;58696;52.134;5.500;2024-01-30T01:48:36;102526.91;;;5.28;100.00
71043;BME280;58696;52.134;5.500;2024-01-30T01:51:06;102541.16;;;5.31;100.00
71043;BME280;58696;52.134;5.500;2024-01-30T01:53:35;102530.97;;;5.31;100.00
71043;BME280;58696;52.134;5.500;2024-01-30T01:56:02;102537.59;;;5.34;100.00
71043;BME280;58696;52.134;5.500;2024-01-30T01:58:29;102528.91;;;5.36;100.00
71043;BME280;58696;52.134;5.500;2024-01-30T02:00:56;102533.09;;;5.37;100.00
71043;BME280;58696;52.134;5.500;2024-01-30T02:03:26;102533.09;;;5.37;100.00
71043;BME280;58696;52.134;5.500;2024-01-30T02:05:53;102529.16;;;5.33;100.00
71043;BME280;58696;52.134;5.500;2024-01-30T02:08:21;102526.28;;;5.25;100.00
71043;BME280;58696;52.134;5.500;2024-01-30T02:10:50;102538.50;;;5.33;100.00
71043;BME280;58696;52.134;5.500;2024-01-30T02:13:17;102529.84;;;5.35;100.00
71043;BME280;58696;52.134;5.500;2024-01-30T02:15:50;102525.56;;;5.36;100.00
71043;BME280;58696;52.134;5.500;2024-01-30T02:18:19;102522.88;;;5.37;100.00
71043;BME280;58696;52.134;5.500;2024-01-30T02:20:46;102525.16;;;5.29;100.00
71043;BME280;58696;52.134;5.500;2024-01-30T02:23:12;102520.38;;;5.24;100.00
71043;BME280;58696;52.134;5.500;2024-01-30T02:25:43;102528.03;;;5.24;100.00
71043;BME280;58696;52.134;5.500;2024-01-30T02:28:15;102528.97;;;5.23;100.00
71043;BME280;58696;52.134;5.500;2024-01-30T02:30:46;102524.56;;;5.25;100.00
71043;BME280;58696;52.134;5.500;2024-01-30T02:33:13;102523.75;;;5.25;100.00
71043;BME280;58696;52.134;5.500;2024-01-30T02:35:42;102524.44;;;5.27;100.00
71043;BME280;58696;52.134;5.500;2024-01-30T02:38:11;102530.69;;;5.23;100.00
71043;BME280;58696;52.134;5.500;2024-01-30T02:40:39;102533.81;;;5.26;100.00
71043;BME280;58696;52.134;5.500;2024-01-30T02:43:06;102526.78;;;5.30;100.00
71043;BME280;58696;52.134;5.500;2024-01-30T02:45:33;102531.91;;;5.30;100.00
71043;BME280;58696;52.134;5.500;2024-01-30T02:48:02;102526.09;;;5.28;100.00
71043;BME280;58696;52.134;5.500;2024-01-30T02:50:31;102521.00;;;5.28;100.00
71043;BME280;58696;52.134;5.500;2024-01-30T02:53:02;102525.97;;;5.30;100.00
71043;BME280;58696;52.134;5.500;2024-01-30T02:55:34;102524.25;;;5.30;100.00
71043;BME280;58696;52.134;5.500;2024-01-30T02:58:01;102517.41;;;5.31;100.00
71043;BME280;58696;52.134;5.500;2024-01-30T03:00:35;102509.88;;;5.29;100.00
71043;BME280;58696;52.134;5.500;2024-01-30T03:03:02;102510.69;;;5.30;100.00
71043;BME280;58696;52.134;5.500;2024-01-30T03:05:29;102504.66;;;5.31;100.00
71043;BME280;58696;52.134;5.500;2024-01-30T03:07:55;102493.66;;;5.30;100.00
71043;BME280;58696;52.134;5.500;2024-01-30T03:10:27;102502.72;;;5.34;100.00
71043;BME280;58696;52.134;5.500;2024-01-30T03:12:56;102493.47;;;5.33;100.00
71043;BME280;58696;52.134;5.500;2024-01-30T03:15:22;102494.84;;;5.37;100.00
71043;BME280;58696;52.134;5.500;2024-01-30T03:17:54;102496.28;;;5.41;100.00
71043;BME280;58696;52.134;5.500;2024-01-30T03:20:21;102493.03;;;5.39;100.00
71043;BME280;58696;52.134;5.500;2024-01-30T03:22:47;102485.06;;;5.44;100.00
71043;BME280;58696;52.134;5.500;2024-01-30T03:25:14;102471.88;;;5.50;100.00
71043;BME280;58696;52.134;5.500;2024-01-30T03:27:40;102475.31;;;5.49;100.00
71043;BME280;58696;52.134;5.500;2024-01-30T03:30:07;102472.41;;;5.42;100.00
71043;BME280;58696;52.134;5.500;2024-01-30T03:32:34;102473.44;;;5.40;100.00
71043;BME280;58696;52.134;5.500;2024-01-30T03:35:01;102485.56;;;5.36;100.00
71043;BME280;58696;52.134;5.500;2024-01-30T03:37:28;102479.47;;;5.39;100.00
71043;BME280;58696;52.134;5.500;2024-01-30T03:39:54;102475.06;;;5.41;100.00
71043;BME280;58696;52.134;5.500;2024-01-30T03:42:23;102479.84;;;5.45;100.00
71043;BME280;58696;52.134;5.500;2024-01-30T03:44:52;102484.72;;;5.48;100.00
71043;BME280;58696;52.134;5.500;2024-01-30T03:47:20;102479.22;;;5.54;100.00
71043;BME280;58696;52.134;5.500;2024-01-30T03:49:47;102467.16;;;5.57;100.00
71043;BME280;58696;52.134;5.500;2024-01-30T03:52:14;102473.88;;;5.58;100.00
71043;BME280;58696;52.134;5.500;2024-01-30T03:54:45;102469.47;;;5.60;100.00
71043;BME280;58696;52.134;5.500;2024-01-30T03:57:12;102464.47;;;5.58;100.00
71043;BME280;58696;52.134;5.500;2024-01-30T03:59:41;102465.09;;;5.62;100.00
71043;BME280;58696;52.134;5.500;2024-01-30T04:02:10;102460.00;;;5.62;100.00
71043;BME280;58696;52.134;5.500;2024-01-30T04:04:39;102456.63;;;5.61;100.00
71043;BME280;58696;52.134;5.500;2024-01-30T04:07:09;102461.50;;;5.64;100.00
71043;BME280;58696;52.134;5.500;2024-01-30T04:09:38;102468.13;;;5.67;100.00
71043;BME280;58696;52.134;5.500;2024-01-30T04:12:08;102471.16;;;5.72;100.00
71043;BME280;58696;52.134;5.500;2024-01-30T04:14:34;102470.72;;;5.78;100.00
71043;BME280;58696;52.134;5.500;2024-01-30T04:17:02;102466.78;;;5.85;100.00
71043;BME280;58696;52.134;5.500;2024-01-30T04:19:28;102472.50;;;5.89;100.00
71043;BME280;58696;52.134;5.500;2024-01-30T04:21:55;102480.56;;;5.95;100.00
71043;BME280;58696;52.134;5.500;2024-01-30T04:24:21;102474.56;;;6.07;100.00
71043;BME280;58696;52.134;5.500;2024-01-30T04:26:48;102473.75;;;6.18;100.00
71043;BME280;58696;52.134;5.500;2024-01-30T04:29:14;102477.41;;;6.27;100.00
71043;BME280;58696;52.134;5.500;2024-01-30T04:31:42;102469.16;;;6.35;100.00
71043;BME280;58696;52.134;5.500;2024-01-30T04:34:10;102460.22;;;6.40;100.00
71043;BME280;58696;52.134;5.500;2024-01-30T04:36:39;102455.47;;;6.47;100.00
71043;BME280;58696;52.134;5.500;2024-01-30T04:39:06;102444.91;;;6.51;100.00
71043;BME280;58696;52.134;5.500;2024-01-30T04:41:37;102446.09;;;6.58;100.00
71043;BME280;58696;52.134;5.500;2024-01-30T04:44:03;102452.00;;;6.59;100.00
71043;BME280;58696;52.134;5.500;2024-01-30T04:46:33;102442.34;;;6.63;100.00
71043;BME280;58696;52.134;5.500;2024-01-30T04:49:02;102441.31;;;6.65;100.00
71043;BME280;58696;52.134;5.500;2024-01-30T04:51:29;102432.03;;;6.64;100.00
71043;BME280;58696;52.134;5.500;2024-01-30T04:53:56;102427.97;;;6.62;100.00
71043;BME280;58696;52.134;5.500;2024-01-30T04:56:23;102439.94;;;6.61;100.00
71043;BME280;58696;52.134;5.500;2024-01-30T04:58:49;102445.16;;;6.59;100.00
71043;BME280;58696;52.134;5.500;2024-01-30T05:01:16;102440.19;;;6.58;100.00
71043;BME280;58696;52.134;5.500;2024-01-30T05:03:43;102445.97;;;6.60;100.00
71043;BME280;58696;52.134;5.500;2024-01-30T05:06:12;102442.13;;;6.66;100.00
71043;BME280;58696;52.134;5.500;2024-01-30T05:08:39;102449.13;;;6.75;100.00
71043;BME280;58696;52.134;5.500;2024-01-30T05:11:08;102452.81;;;6.82;100.00
71043;BME280;58696;52.134;5.500;2024-01-30T05:13:34;102454.22;;;6.86;100.00
71043;BME280;58696;52.134;5.500;2024-01-30T05:16:02;102448.75;;;6.91;100.00
71043;BME280;58696;52.134;5.500;2024-01-30T05:18:30;102446.63;;;6.96;100.00
71043;BME280;58696;52.134;5.500;2024-01-30T05:20:57;102446.06;;;7.03;100.00
71043;BME280;58696;52.134;5.500;2024-01-30T05:23:26;102448.00;;;7.11;100.00
71043;BME280;58696;52.134;5.500;2024-01-30T05:25:55;102448.59;;;7.15;100.00
71043;BME280;58696;52.134;5.500;2024-01-30T05:28:22;102450.53;;;7.22;100.00
71043;BME280;58696;52.134;5.500;2024-01-30T05:30:53;102447.41;;;7.30;100.00
71043;BME280;58696;52.134;5.500;2024-01-30T05:33:25;102424.56;;;7.38;100.00
71043;BME280;58696;52.134;5.500;2024-01-30T05:35:54;102421.06;;;7.39;100.00
71043;BME280;58696;52.134;5.500;2024-01-30T05:38:21;102416.78;;;7.40;100.00
71043;BME280;58696;52.134;5.500;2024-01-30T05:40:49;102424.34;;;7.41;100.00
71043;BME280;58696;52.134;5.500;2024-01-30T05:43:16;102420.59;;;7.45;100.00
71043;BME280;58696;52.134;5.500;2024-01-30T05:45:42;102426.28;;;7.49;100.00
71043;BME280;58696;52.134;5.500;2024-01-30T05:48:09;102432.91;;;7.51;100.00
71043;BME280;58696;52.134;5.500;2024-01-30T05:50:36;102436.00;;;7.55;100.00
71043;BME280;58696;52.134;5.500;2024-01-30T05:53:05;102443.31;;;7.59;100.00
71043;BME280;58696;52.134;5.500;2024-01-30T05:55:31;102428.69;;;7.61;100.00
71043;BME280;58696;52.134;5.500;2024-01-30T05:58:01;102420.88;;;7.63;100.00
71043;BME280;58696;52.134;5.500;2024-01-30T06:00:32;102436.91;;;7.65;100.00
71043;BME280;58696;52.134;5.500;2024-01-30T06:02:58;102441.09;;;7.66;100.00
71043;BME280;58696;52.134;5.500;2024-01-30T06:05:27;102449.03;;;7.63;100.00
71043;BME280;58696;52.134;5.500;2024-01-30T06:07:56;102458.44;;;7.62;100.00
71043;BME280;58696;52.134;5.500;2024-01-30T06:10:26;102442.50;;;7.59;100.00
71043;BME280;58696;52.134;5.500;2024-01-30T06:12:57;102448.81;;;7.55;100.00
71043;BME280;58696;52.134;5.500;2024-01-30T06:15:27;102440.31;;;7.54;100.00
71043;BME280;58696;52.134;5.500;2024-01-30T06:17:56;102436.81;;;7.55;100.00
71043;BME280;58696;52.134;5.500;2024-01-30T06:20:25;102445.88;;;7.59;100.00
71043;BME280;58696;52.134;5.500;2024-01-30T06:22:54;102444.59;;;7.65;100.00
71043;BME280;58696;52.134;5.500;2024-01-30T06:25:21;102437.72;;;7.65;100.00
71043;BME280;58696;52.134;5.500;2024-01-30T06:27:50;102448.41;;;7.71;100.00
71043;BME280;58696;52.134;5.500;2024-01-30T06:30:19;102437.34;;;7.70;100.00
71043;BME280;58696;52.134;5.500;2024-01-30T06:32:48;102428.28;;;7.66;100.00
71043;BME280;58696;52.134;5.500;2024-01-30T06:35:17;102438.16;;;7.71;100.00
71043;BME280;58696;52.134;5.500;2024-01-30T06:37:44;102446.41;;;7.74;100.00
71043;BME280;58696;52.134;5.500;2024-01-30T06:40:13;102445.59;;;7.74;100.00
71043;BME280;58696;52.134;5.500;2024-01-30T06:42:39;102442.09;;;7.75;100.00
71043;BME280;58696;52.134;5.500;2024-01-30T06:45:09;102445.34;;;7.77;100.00
71043;BME280;58696;52.134;5.500;2024-01-30T06:47:41;102452.91;;;7.78;100.00
71043;BME280;58696;52.134;5.500;2024-01-30T06:50:10;102451.84;;;7.81;100.00
71043;BME280;58696;52.134;5.500;2024-01-30T06:52:36;102454.16;;;7.84;100.00
71043;BME280;58696;52.134;5.500;2024-01-30T06:55:03;102445.84;;;7.91;100.00
71043;BME280;58696;52.134;5.500;2024-01-30T06:57:32;102447.09;;;7.97;100.00
71043;BME280;58696;52.134;5.500;2024-01-30T07:00:01;102449.53;;;7.99;100.00
71043;BME280;58696;52.134;5.500;2024-01-30T07:02:30;102449.53;;;7.99;100.00
71043;BME280;58696;52.134;5.500;2024-01-30T07:05:02;102437.31;;;8.02;100.00
71043;BME280;58696;52.134;5.500;2024-01-30T07:07:32;102447.53;;;8.02;100.00
71043;BME280;58696;52.134;5.500;2024-01-30T07:09:59;102458.22;;;8.07;100.00
71043;BME280;58696;52.134;5.500;2024-01-30T07:12:26;102448.78;;;8.08;100.00
71043;BME280;58696;52.134;5.500;2024-01-30T07:14:52;102446.22;;;8.08;100.00
71043;BME280;58696;52.134;5.500;2024-01-30T07:17:19;102443.53;;;8.09;100.00
71043;BME280;58696;52.134;5.500;2024-01-30T07:19:48;102450.16;;;8.12;100.00
71043;BME280;58696;52.134;5.500;2024-01-30T07:22:18;102453.66;;;8.11;100.00
71043;BME280;58696;52.134;5.500;2024-01-30T07:24:45;102453.53;;;8.12;100.00
71043;BME280;58696;52.134;5.500;2024-01-30T07:27:14;102469.03;;;8.11;100.00
71043;BME280;58696;52.134;5.500;2024-01-30T07:29:43;102465.66;;;8.10;100.00
71043;BME280;58696;52.134;5.500;2024-01-30T07:32:09;102464.44;;;8.14;100.00
71043;BME280;58696;52.134;5.500;2024-01-30T07:34:36;102469.56;;;8.14;100.00
71043;BME280;58696;52.134;5.500;2024-01-30T07:37:15;102471.22;;;8.15;100.00
71043;BME280;58696;52.134;5.500;2024-01-30T07:39:42;102473.06;;;8.13;100.00
71043;BME280;58696;52.134;5.500;2024-01-30T07:42:09;102469.03;;;8.11;100.00
71043;BME280;58696;52.134;5.500;2024-01-30T07:44:35;102469.94;;;8.10;100.00
71043;BME280;58696;52.134;5.500;2024-01-30T07:47:07;102469.28;;;8.08;100.00
71043;BME280;58696;52.134;5.500;2024-01-30T07:49:34;102478.19;;;8.13;100.00
71043;BME280;58696;52.134;5.500;2024-01-30T07:52:01;102479.81;;;8.14;100.00
71043;BME280;58696;52.134;5.500;2024-01-30T07:54:31;102489.81;;;8.17;100.00
71043;BME280;58696;52.134;5.500;2024-01-30T07:57:00;102492.81;;;8.23;100.00
71043;BME280;58696;52.134;5.500;2024-01-30T07:59:29;102492.31;;;8.29;100.00
71043;BME280;58696;52.134;5.500;2024-01-30T08:01:58;102494.75;;;8.30;100.00
71043;BME280;58696;52.134;5.500;2024-01-30T08:04:29;102495.44;;;8.32;100.00
71043;BME280;58696;52.134;5.500;2024-01-30T08:06:58;102498.59;;;8.36;100.00
71043;BME280;58696;52.134;5.500;2024-01-30T08:09:25;102503.47;;;8.39;100.00
71043;BME280;58696;52.134;5.500;2024-01-30T08:11:51;102502.53;;;8.40;100.00
71043;BME280;58696;52.134;5.500;2024-01-30T08:14:18;102502.28;;;8.43;100.00
71043;BME280;58696;52.134;5.500;2024-01-30T08:16:47;102498.50;;;8.47;100.00
71043;BME280;58696;52.134;5.500;2024-01-30T08:19:15;102501.63;;;8.51;100.00
71043;BME280;58696;52.134;5.500;2024-01-30T08:21:46;102494.53;;;8.54;100.00
71043;BME280;58696;52.134;5.500;2024-01-30T08:24:13;102502.75;;;8.58;100.00
71043;BME280;58696;52.134;5.500;2024-01-30T08:26:42;102494.94;;;8.59;100.00
71043;BME280;58696;52.134;5.500;2024-01-30T08:29:09;102499.00;;;8.62;100.00
71043;BME280;58696;52.134;5.500;2024-01-30T08:31:35;102502.13;;;8.65;100.00
71043;BME280;58696;52.134;5.500;2024-01-30T08:34:02;102494.84;;;8.71;100.00
71043;BME280;58696;52.134;5.500;2024-01-30T08:36:29;102504.69;;;8.75;100.00
71043;BME280;58696;52.134;5.500;2024-01-30T08:38:55;102504.47;;;8.78;100.00
71043;BME280;58696;52.134;5.500;2024-01-30T08:41:28;102504.31;;;8.80;100.00
71043;BME280;58696;52.134;5.500;2024-01-30T08:43:55;102503.13;;;8.84;100.00
71043;BME280;58696;52.134;5.500;2024-01-30T08:46:21;102501.13;;;8.87;100.00
71043;BME280;58696;52.134;5.500;2024-01-30T08:48:48;102506.69;;;8.92;100.00
71043;BME280;58696;52.134;5.500;2024-01-30T08:51:18;102504.78;;;8.94;100.00
71043;BME280;58696;52.134;5.500;2024-01-30T08:53:45;102500.22;;;8.98;100.00
71043;BME280;58696;52.134;5.500;2024-01-30T08:56:11;102499.13;;;9.01;100.00
71043;BME280;58696;52.134;5.500;2024-01-30T08:58:38;102502.41;;;9.03;100.00
71043;BME280;58696;52.134;5.500;2024-01-30T09:01:05;102502.25;;;9.04;100.00
71043;BME280;58696;52.134;5.500;2024-01-30T09:03:32;102507.25;;;9.06;100.00
71043;BME280;58696;52.134;5.500;2024-01-30T09:06:03;102515.75;;;9.06;100.00
71043;BME280;58696;52.134;5.500;2024-01-30T09:08:31;102514.69;;;9.09;100.00
71043;BME280;58696;52.134;5.500;2024-01-30T09:11:00;102509.19;;;9.13;100.00
71043;BME280;58696;52.134;5.500;2024-01-30T09:13:29;102512.03;;;9.20;100.00
71043;BME280;58696;52.134;5.500;2024-01-30T09:15:58;102511.50;;;9.26;100.00
71043;BME280;58696;52.134;5.500;2024-01-30T09:18:27;102514.19;;;9.34;100.00
71043;BME280;58696;52.134;5.500;2024-01-30T09:20:56;102508.13;;;9.45;100.00
71043;BME280;58696;52.134;5.500;2024-01-30T09:23:22;102516.53;;;9.57;100.00
71043;BME280;58696;52.134;5.500;2024-01-30T09:25:52;102522.22;;;9.70;100.00
71043;BME280;58696;52.134;5.500;2024-01-30T09:28:18;102526.41;;;9.90;100.00
71043;BME280;58696;52.134;5.500;2024-01-30T09:30:45;102522.63;;;9.94;100.00
71043;BME280;58696;52.134;5.500;2024-01-30T09:33:12;102533.59;;;9.96;100.00
71043;BME280;58696;52.134;5.500;2024-01-30T09:35:41;102529.91;;;9.99;100.00
71043;BME280;58696;52.134;5.500;2024-01-30T09:38:07;102530.19;;;10.06;100.00
71043;BME280;58696;52.134;5.500;2024-01-30T09:40:36;102535.72;;;10.11;100.00
71043;BME280;58696;52.134;5.500;2024-01-30T09:43:03;102535.31;;;10.15;100.00
71043;BME280;58696;52.134;5.500;2024-01-30T09:45:35;102536.41;;;10.22;100.00
71043;BME280;58696;52.134;5.500;2024-01-30T09:48:06;102536.16;;;10.25;100.00
71043;BME280;58696;52.134;5.500;2024-01-30T09:50:36;102543.59;;;10.29;100.00
71043;BME280;58696;52.134;5.500;2024-01-30T09:53:03;102545.22;;;10.30;100.00
71043;BME280;58696;52.134;5.500;2024-01-30T09:55:30;102535.47;;;10.33;100.00
71043;BME280;58696;52.134;5.500;2024-01-30T09:57:57;102545.75;;;10.33;100.00
71043;BME280;58696;52.134;5.500;2024-01-30T10:00:23;102548.97;;;10.35;100.00
71043;BME280;58696;52.134;5.500;2024-01-30T10:02:56;102553.03;;;10.38;100.00
71043;BME280;58696;52.134;5.500;2024-01-30T10:05:26;102546.81;;;10.40;100.00
71043;BME280;58696;52.134;5.500;2024-01-30T10:07:56;102552.50;;;10.44;100.00
71043;BME280;58696;52.134;5.500;2024-01-30T10:10:26;102548.00;;;10.46;100.00
71043;BME280;58696;52.134;5.500;2024-01-30T10:12:52;102550.59;;;10.46;100.00
71043;BME280;58696;52.134;5.500;2024-01-30T10:15:20;102549.63;;;10.47;100.00
71043;BME280;58696;52.134;5.500;2024-01-30T10:17:46;102539.91;;;10.50;100.00
71043;BME280;58696;52.134;5.500;2024-01-30T10:20:13;102545.69;;;10.52;100.00
71043;BME280;58696;52.134;5.500;2024-01-30T10:22:42;102548.41;;;10.51;100.00
71043;BME280;58696;52.134;5.500;2024-01-30T10:25:13;102545.69;;;10.52;100.00
71043;BME280;58696;52.134;5.500;2024-01-30T10:27:40;102550.69;;;10.54;100.00
71043;BME280;58696;52.134;5.500;2024-01-30T10:30:12;102541.09;;;10.56;100.00
71043;BME280;58696;52.134;5.500;2024-01-30T10:32:38;102538.09;;;10.61;100.00
71043;BME280;58696;52.134;5.500;2024-01-30T10:35:07;102545.75;;;10.70;100.00
71043;BME280;58696;52.134;5.500;2024-01-30T10:37:37;102538.97;;;10.79;100.00
71043;BME280;58696;52.134;5.500;2024-01-30T10:40:07;102556.09;;;10.98;100.00
71043;BME280;58696;52.134;5.500;2024-01-30T10:42:42;102551.88;;;11.06;100.00
71043;BME280;58696;52.134;5.500;2024-01-30T10:45:13;102540.91;;;11.04;100.00
71043;BME280;58696;52.134;5.500;2024-01-30T10:47:53;102532.00;;;10.99;100.00
71043;BME280;58696;52.134;5.500;2024-01-30T10:50:24;102547.72;;;10.96;100.00
71043;BME280;58696;52.134;5.500;2024-01-30T10:52:54;102562.88;;;10.99;100.00
71043;BME280;58696;52.134;5.500;2024-01-30T10:55:22;102556.66;;;10.92;100.00
71043;BME280;58696;52.134;5.500;2024-01-30T10:57:50;102566.44;;;10.88;100.00
71043;BME280;58696;52.134;5.500;2024-01-30T11:00:20;102560.47;;;10.88;100.00
71043;BME280;58696;52.134;5.500;2024-01-30T11:02:51;102564.56;;;10.80;100.00
71043;BME280;58696;52.134;5.500;2024-01-30T11:05:24;102565.66;;;10.78;100.00
71043;BME280;58696;52.134;5.500;2024-01-30T11:07:59;102557.66;;;10.81;100.00
71043;BME280;58696;52.134;5.500;2024-01-30T11:10:25;102562.66;;;10.83;100.00
71043;BME280;58696;52.134;5.500;2024-01-30T11:12:52;102551.56;;;10.82;100.00
71043;BME280;58696;52.134;5.500;2024-01-30T11:15:19;102564.56;;;10.80;100.00
71043;BME280;58696;52.134;5.500;2024-01-30T11:22:56;102567.63;;;10.94;100.00
71043;BME280;58696;52.134;5.500;2024-01-30T11:25:28;102562.34;;;10.95;100.00
71043;BME280;58696;52.134;5.500;2024-01-30T11:27:58;102570.72;;;10.97;100.00
71043;BME280;58696;52.134;5.500;2024-01-30T11:30:29;102561.91;;;11.00;100.00
71043;BME280;58696;52.134;5.500;2024-01-30T11:33:12;102574.78;;;11.00;100.00
71043;BME280;58696;52.134;5.500;2024-01-30T11:35:45;102577.50;;;10.98;100.00
71043;BME280;58696;52.134;5.500;2024-01-30T11:38:15;102576.56;;;10.90;100.00
71043;BME280;58696;52.134;5.500;2024-01-30T11:40:44;102571.31;;;10.82;100.00
71043;BME280;58696;52.134;5.500;2024-01-30T11:43:10;102584.72;;;10.85;100.00
71043;BME280;58696;52.134;5.500;2024-01-30T11:45:40;102580.66;;;10.83;100.00
71043;BME280;58696;52.134;5.500;2024-01-30T11:48:12;102582.16;;;10.75;100.00
71043;BME280;58696;52.134;5.500;2024-01-30T11:50:39;102583.25;;;10.73;100.00
71043;BME280;58696;52.134;5.500;2024-01-30T11:53:17;102588.56;;;10.71;100.00
71043;BME280;58696;52.134;5.500;2024-01-30T11:55:50;102592.34;;;10.67;100.00
71043;BME280;58696;52.134;5.500;2024-01-30T11:58:17;102589.53;;;10.61;100.00
71043;BME280;58696;52.134;5.500;2024-01-30T12:00:53;102583.31;;;10.53;100.00
71043;BME280;58696;52.134;5.500;2024-01-30T12:03:21;102586.56;;;10.46;100.00
71043;BME280;58696;52.134;5.500;2024-01-30T12:05:55;102596.19;;;10.44;100.00
71043;BME280;58696;52.134;5.500;2024-01-30T12:08:28;102587.53;;;10.45;100.00
71043;BME280;58696;52.134;5.500;2024-01-30T12:10:58;102602.00;;;10.46;100.00
71043;BME280;58696;52.134;5.500;2024-01-30T12:13:26;102599.03;;;10.41;100.00
71043;BME280;58696;52.134;5.500;2024-01-30T12:16:00;102602.16;;;10.35;100.00
71043;BME280;58696;52.134;5.500;2024-01-30T12:18:30;102605.78;;;10.32;100.00
71043;BME280;58696;52.134;5.500;2024-01-30T12:21:01;102611.34;;;10.27;100.00
71043;BME280;58696;52.134;5.500;2024-01-30T12:23:28;102617.16;;;10.30;100.00
71043;BME280;58696;52.134;5.500;2024-01-30T12:25:58;102624.41;;;10.15;100.00
71043;BME280;58696;52.134;5.500;2024-01-30T12:28:25;102618.47;;;10.05;100.00
71043;BME280;58696;52.134;5.500;2024-01-30T12:30:56;102642.41;;;10.05;100.00
71043;BME280;58696;52.134;5.500;2024-01-30T12:33:27;102648.22;;;9.97;100.00
71043;BME280;58696;52.134;5.500;2024-01-30T12:35:56;102655.47;;;9.83;100.00
71043;BME280;58696;52.134;5.500;2024-01-30T12:38:31;102659.34;;;9.67;100.00
71043;BME280;58696;52.134;5.500;2024-01-30T12:41:00;102660.69;;;9.52;100.00
71043;BME280;58696;52.134;5.500;2024-01-30T12:43:30;102659.94;;;9.40;100.00
71043;BME280;58696;52.134;5.500;2024-01-30T12:46:07;102662.22;;;9.34;100.00
71043;BME280;58696;52.134;5.500;2024-01-30T12:48:39;102666.09;;;9.28;100.00
71043;BME280;58696;52.134;5.500;2024-01-30T12:51:05;102670.69;;;9.25;100.00
71043;BME280;58696;52.134;5.500;2024-01-30T12:53:32;102650.41;;;9.21;100.00
71043;BME280;58696;52.134;5.500;2024-01-30T12:55:59;102662.28;;;9.22;100.00
71043;BME280;58696;52.134;5.500;2024-01-30T12:58:25;102662.28;;;9.22;100.00